sensor_id;sensor_type;location;lat;lon;timestamp;P1;durP1;ratioP1;P2;durP2;ratioP2
69172;SDS011;56280;49.662;8.408;2022-12-29T00:01:26;4.90;;;2.97;;
69172;SDS011;56280;49.662;8.408;2022-12-29T00:03:51;6.53;;;2.87;;
69172;SDS011;56280;49.662;8.408;2022-12-29T00:06:16;5.50;;;2.77;;
69172;SDS011;56280;49.662;8.408;2022-12-29T00:08:42;5.43;;;2.73;;
69172;SDS011;56280;49.662;8.408;2022-12-29T00:11:08;5.33;;;2.50;;
69172;SDS011;56280;49.662;8.408;2022-12-29T00:13:39;5.50;;;2.33;;
69172;SDS011;56280;49.662;8.408;2022-12-29T00:16:23;4.28;;;2.10;;
69172;SDS011;56280;49.662;8.408;2022-12-29T00:18:49;3.73;;;1.80;;
69172;SDS011;56280;49.662;8.408;2022-12-29T00:21:15;5.15;;;1.80;;
69172;SDS011;56280;49.662;8.408;2022-12-29T00:24:01;3.88;;;1.80;;
69172;SDS011;56280;49.662;8.408;2022-12-29T00:26:45;3.85;;;1.70;;
69172;SDS011;56280;49.662;8.408;2022-12-29T00:29:30;4.60;;;1.60;;
69172;SDS011;56280;49.662;8.408;2022-12-29T00:32:14;3.97;;;1.50;;
69172;SDS011;56280;49.662;8.408;2022-12-29T00:34:58;4.30;;;1.67;;
69172;SDS011;56280;49.662;8.408;2022-12-29T00:37:36;4.88;;;1.80;;
69172;SDS011;56280;49.662;8.408;2022-12-29T00:40:39;4.18;;;1.50;;
69172;SDS011;56280;49.662;8.408;2022-12-29T00:43:24;3.30;;;1.58;;
69172;SDS011;56280;49.662;8.408;2022-12-29T00:46:08;4.28;;;1.60;;
69172;SDS011;56280;49.662;8.408;2022-12-29T00:48:33;3.72;;;1.55;;
69172;SDS011;56280;49.662;8.408;2022-12-29T00:51:17;4.72;;;1.65;;
69172;SDS011;56280;49.662;8.408;2022-12-29T00:53:42;3.57;;;1.53;;
69172;SDS011;56280;49.662;8.408;2022-12-29T00:56:07;4.17;;;1.83;;
69172;SDS011;56280;49.662;8.408;2022-12-29T00:58:32;3.60;;;1.50;;
69172;SDS011;56280;49.662;8.408;2022-12-29T01:01:05;3.90;;;1.83;;
69172;SDS011;56280;49.662;8.408;2022-12-29T01:03:32;4.18;;;1.70;;
69172;SDS011;56280;49.662;8.408;2022-12-29T01:06:02;4.47;;;1.58;;
69172;SDS011;56280;49.662;8.408;2022-12-29T01:08:29;3.88;;;1.23;;
69172;SDS011;56280;49.662;8.408;2022-12-29T01:10:59;2.72;;;1.23;;
69172;SDS011;56280;49.662;8.408;2022-12-29T01:13:25;3.60;;;1.40;;
69172;SDS011;56280;49.662;8.408;2022-12-29T01:15:50;3.70;;;1.23;;
69172;SDS011;56280;49.662;8.408;2022-12-29T01:18:16;4.43;;;1.57;;
69172;SDS011;56280;49.662;8.408;2022-12-29T01:20:41;3.73;;;1.20;;
69172;SDS011;56280;49.662;8.408;2022-12-29T01:23:07;5.00;;;1.30;;
69172;SDS011;56280;49.662;8.408;2022-12-29T01:25:32;3.23;;;1.30;;
69172;SDS011;56280;49.662;8.408;2022-12-29T01:27:57;3.73;;;1.40;;
69172;SDS011;56280;49.662;8.408;2022-12-29T01:30:22;3.20;;;1.10;;
69172;SDS011;56280;49.662;8.408;2022-12-29T01:32:48;2.80;;;1.20;;
69172;SDS011;56280;49.662;8.408;2022-12-29T01:35:13;3.80;;;1.17;;
69172;SDS011;56280;49.662;8.408;2022-12-29T01:37:38;3.90;;;1.27;;
69172;SDS011;56280;49.662;8.408;2022-12-29T01:40:03;3.47;;;1.37;;
69172;SDS011;56280;49.662;8.408;2022-12-29T01:42:29;3.08;;;1.20;;
69172;SDS011;56280;49.662;8.408;2022-12-29T01:44:58;2.87;;;1.10;;
69172;SDS011;56280;49.662;8.408;2022-12-29T01:47:30;3.33;;;1.10;;
69172;SDS011;56280;49.662;8.408;2022-12-29T01:50:45;4.33;;;1.27;;
69172;SDS011;56280;49.662;8.408;2022-12-29T01:53:13;3.40;;;1.10;;
69172;SDS011;56280;49.662;8.408;2022-12-29T01:55:46;3.33;;;1.20;;
69172;SDS011;56280;49.662;8.408;2022-12-29T01:58:15;2.80;;;1.20;;
69172;SDS011;56280;49.662;8.408;2022-12-29T02:00:42;2.83;;;1.15;;
69172;SDS011;56280;49.662;8.408;2022-12-29T02:03:08;3.83;;;1.23;;
69172;SDS011;56280;49.662;8.408;2022-12-29T02:05:39;4.03;;;1.27;;
69172;SDS011;56280;49.662;8.408;2022-12-29T02:08:09;3.57;;;1.20;;
69172;SDS011;56280;49.662;8.408;2022-12-29T02:10:36;3.00;;;1.00;;
69172;SDS011;56280;49.662;8.408;2022-12-29T02:13:02;2.50;;;1.10;;
69172;SDS011;56280;49.662;8.408;2022-12-29T02:18:12;3.42;;;1.10;;
69172;SDS011;56280;49.662;8.408;2022-12-29T02:28:46;3.10;;;1.20;;
69172;SDS011;56280;49.662;8.408;2022-12-29T02:31:28;3.03;;;1.20;;
69172;SDS011;56280;49.662;8.408;2022-12-29T02:34:20;3.80;;;1.33;;
69172;SDS011;56280;49.662;8.408;2022-12-29T02:39:50;3.73;;;1.40;;
69172;SDS011;56280;49.662;8.408;2022-12-29T02:42:36;4.10;;;1.23;;
69172;SDS011;56280;49.662;8.408;2022-12-29T02:45:17;3.15;;;1.40;;
69172;SDS011;56280;49.662;8.408;2022-12-29T02:47:56;3.03;;;1.30;;
69172;SDS011;56280;49.662;8.408;2022-12-29T02:50:36;3.95;;;1.50;;
69172;SDS011;56280;49.662;8.408;2022-12-29T02:53:09;3.28;;;1.50;;
69172;SDS011;56280;49.662;8.408;2022-12-29T02:55:38;4.13;;;1.37;;
69172;SDS011;56280;49.662;8.408;2022-12-29T02:58:15;2.75;;;1.25;;
69172;SDS011;56280;49.662;8.408;2022-12-29T03:11:33;3.30;;;1.30;;
69172;SDS011;56280;49.662;8.408;2022-12-29T03:15:10;4.30;;;1.50;;
69172;SDS011;56280;49.662;8.408;2022-12-29T03:18:02;3.35;;;1.58;;
69172;SDS011;56280;49.662;8.408;2022-12-29T03:20:38;4.28;;;1.55;;
69172;SDS011;56280;49.662;8.408;2022-12-29T03:23:07;3.65;;;1.80;;
69172;SDS011;56280;49.662;8.408;2022-12-29T03:25:33;3.80;;;1.77;;
69172;SDS011;56280;49.662;8.408;2022-12-29T03:28:08;4.07;;;1.67;;
69172;SDS011;56280;49.662;8.408;2022-12-29T03:30:37;4.07;;;1.60;;
69172;SDS011;56280;49.662;8.408;2022-12-29T03:33:07;3.53;;;1.63;;
69172;SDS011;56280;49.662;8.408;2022-12-29T03:35:37;3.70;;;1.52;;
69172;SDS011;56280;49.662;8.408;2022-12-29T03:38:10;5.10;;;1.80;;
69172;SDS011;56280;49.662;8.408;2022-12-29T03:40:40;3.97;;;1.50;;
69172;SDS011;56280;49.662;8.408;2022-12-29T03:43:09;3.90;;;1.70;;
69172;SDS011;56280;49.662;8.408;2022-12-29T03:45:36;3.70;;;1.50;;
69172;SDS011;56280;49.662;8.408;2022-12-29T03:48:01;4.20;;;1.63;;
69172;SDS011;56280;49.662;8.408;2022-12-29T03:50:26;4.30;;;1.90;;
69172;SDS011;56280;49.662;8.408;2022-12-29T03:52:52;3.27;;;1.40;;
69172;SDS011;56280;49.662;8.408;2022-12-29T03:55:17;3.70;;;1.60;;
69172;SDS011;56280;49.662;8.408;2022-12-29T03:57:42;5.53;;;1.75;;
69172;SDS011;56280;49.662;8.408;2022-12-29T04:00:08;3.80;;;1.87;;
69172;SDS011;56280;49.662;8.408;2022-12-29T04:02:33;4.07;;;1.50;;
69172;SDS011;56280;49.662;8.408;2022-12-29T04:04:59;3.73;;;1.67;;
69172;SDS011;56280;49.662;8.408;2022-12-29T04:07:24;4.17;;;1.60;;
69172;SDS011;56280;49.662;8.408;2022-12-29T04:09:49;4.27;;;1.60;;
69172;SDS011;56280;49.662;8.408;2022-12-29T04:12:14;3.90;;;1.40;;
69172;SDS011;56280;49.662;8.408;2022-12-29T04:14:40;4.10;;;1.67;;
69172;SDS011;56280;49.662;8.408;2022-12-29T04:17:06;4.60;;;1.70;;
69172;SDS011;56280;49.662;8.408;2022-12-29T04:19:31;5.50;;;1.80;;
69172;SDS011;56280;49.662;8.408;2022-12-29T04:21:56;5.27;;;1.70;;
69172;SDS011;56280;49.662;8.408;2022-12-29T04:24:22;3.60;;;1.53;;
69172;SDS011;56280;49.662;8.408;2022-12-29T04:26:47;5.13;;;1.63;;
69172;SDS011;56280;49.662;8.408;2022-12-29T04:29:12;3.97;;;1.53;;
69172;SDS011;56280;49.662;8.408;2022-12-29T04:31:37;3.87;;;1.60;;
69172;SDS011;56280;49.662;8.408;2022-12-29T04:34:03;4.70;;;1.70;;
69172;SDS011;56280;49.662;8.408;2022-12-29T04:36:28;3.97;;;1.60;;
69172;SDS011;56280;49.662;8.408;2022-12-29T04:38:53;3.20;;;1.53;;
69172;SDS011;56280;49.662;8.408;2022-12-29T04:41:19;4.27;;;1.70;;
69172;SDS011;56280;49.662;8.408;2022-12-29T04:43:44;4.27;;;1.60;;
69172;SDS011;56280;49.662;8.408;2022-12-29T04:46:09;4.13;;;1.40;;
69172;SDS011;56280;49.662;8.408;2022-12-29T04:48:34;3.80;;;1.40;;
69172;SDS011;56280;49.662;8.408;2022-12-29T04:51:00;3.60;;;1.40;;
69172;SDS011;56280;49.662;8.408;2022-12-29T04:53:25;4.13;;;1.50;;
69172;SDS011;56280;49.662;8.408;2022-12-29T04:55:51;5.03;;;1.60;;
69172;SDS011;56280;49.662;8.408;2022-12-29T04:58:17;4.63;;;1.77;;
69172;SDS011;56280;49.662;8.408;2022-12-29T05:00:43;3.40;;;1.40;;
69172;SDS011;56280;49.662;8.408;2022-12-29T05:03:08;4.73;;;1.70;;
69172;SDS011;56280;49.662;8.408;2022-12-29T05:05:34;4.47;;;1.60;;
69172;SDS011;56280;49.662;8.408;2022-12-29T05:08:01;3.93;;;1.43;;
69172;SDS011;56280;49.662;8.408;2022-12-29T05:10:27;5.15;;;1.45;;
69172;SDS011;56280;49.662;8.408;2022-12-29T05:12:52;5.67;;;1.70;;
69172;SDS011;56280;49.662;8.408;2022-12-29T05:15:17;3.25;;;1.38;;
69172;SDS011;56280;49.662;8.408;2022-12-29T05:17:43;4.47;;;1.60;;
69172;SDS011;56280;49.662;8.408;2022-12-29T05:20:08;4.60;;;1.70;;
69172;SDS011;56280;49.662;8.408;2022-12-29T05:22:34;4.15;;;1.40;;
69172;SDS011;56280;49.662;8.408;2022-12-29T05:24:59;3.60;;;1.50;;
69172;SDS011;56280;49.662;8.408;2022-12-29T05:27:25;4.37;;;1.40;;
69172;SDS011;56280;49.662;8.408;2022-12-29T05:29:50;3.87;;;1.50;;
69172;SDS011;56280;49.662;8.408;2022-12-29T05:32:15;4.80;;;1.60;;
69172;SDS011;56280;49.662;8.408;2022-12-29T05:34:40;4.53;;;1.90;;
69172;SDS011;56280;49.662;8.408;2022-12-29T05:37:06;4.57;;;1.40;;
69172;SDS011;56280;49.662;8.408;2022-12-29T05:39:31;3.20;;;1.33;;
69172;SDS011;56280;49.662;8.408;2022-12-29T05:41:56;3.40;;;1.50;;
69172;SDS011;56280;49.662;8.408;2022-12-29T05:44:22;4.53;;;1.43;;
69172;SDS011;56280;49.662;8.408;2022-12-29T05:46:47;3.63;;;1.50;;
69172;SDS011;56280;49.662;8.408;2022-12-29T05:49:12;3.73;;;1.40;;
69172;SDS011;56280;49.662;8.408;2022-12-29T05:51:37;3.90;;;1.57;;
69172;SDS011;56280;49.662;8.408;2022-12-29T05:54:03;3.63;;;1.60;;
69172;SDS011;56280;49.662;8.408;2022-12-29T05:56:28;5.00;;;1.70;;
69172;SDS011;56280;49.662;8.408;2022-12-29T05:58:54;4.20;;;1.60;;
69172;SDS011;56280;49.662;8.408;2022-12-29T06:01:19;5.00;;;1.63;;
69172;SDS011;56280;49.662;8.408;2022-12-29T06:03:44;4.43;;;2.00;;
69172;SDS011;56280;49.662;8.408;2022-12-29T06:06:09;4.40;;;1.70;;
69172;SDS011;56280;49.662;8.408;2022-12-29T06:08:35;4.07;;;1.57;;
69172;SDS011;56280;49.662;8.408;2022-12-29T06:11:00;4.53;;;2.10;;
69172;SDS011;56280;49.662;8.408;2022-12-29T06:13:25;4.10;;;1.70;;
69172;SDS011;56280;49.662;8.408;2022-12-29T06:15:52;5.50;;;1.80;;
69172;SDS011;56280;49.662;8.408;2022-12-29T06:18:17;4.80;;;1.90;;
69172;SDS011;56280;49.662;8.408;2022-12-29T06:20:42;4.53;;;1.70;;
69172;SDS011;56280;49.662;8.408;2022-12-29T06:23:08;5.30;;;1.70;;
69172;SDS011;56280;49.662;8.408;2022-12-29T06:25:33;5.17;;;1.87;;
69172;SDS011;56280;49.662;8.408;2022-12-29T06:28:00;5.10;;;1.90;;
69172;SDS011;56280;49.662;8.408;2022-12-29T06:30:26;5.30;;;1.97;;
69172;SDS011;56280;49.662;8.408;2022-12-29T06:32:52;4.13;;;1.90;;
69172;SDS011;56280;49.662;8.408;2022-12-29T06:35:17;4.75;;;1.92;;
69172;SDS011;56280;49.662;8.408;2022-12-29T06:37:43;5.05;;;1.92;;
69172;SDS011;56280;49.662;8.408;2022-12-29T06:40:08;5.47;;;2.10;;
69172;SDS011;56280;49.662;8.408;2022-12-29T06:42:34;6.45;;;2.15;;
69172;SDS011;56280;49.662;8.408;2022-12-29T06:44:59;5.77;;;2.17;;
69172;SDS011;56280;49.662;8.408;2022-12-29T06:47:25;6.38;;;2.00;;
69172;SDS011;56280;49.662;8.408;2022-12-29T06:49:51;4.70;;;2.10;;
69172;SDS011;56280;49.662;8.408;2022-12-29T06:52:16;5.22;;;2.10;;
69172;SDS011;56280;49.662;8.408;2022-12-29T06:54:42;5.15;;;2.08;;
69172;SDS011;56280;49.662;8.408;2022-12-29T06:57:07;5.60;;;2.00;;
69172;SDS011;56280;49.662;8.408;2022-12-29T06:59:32;6.03;;;2.27;;
69172;SDS011;56280;49.662;8.408;2022-12-29T07:01:57;5.23;;;2.30;;
69172;SDS011;56280;49.662;8.408;2022-12-29T07:04:23;5.33;;;2.20;;
69172;SDS011;56280;49.662;8.408;2022-12-29T07:06:48;5.50;;;2.00;;
69172;SDS011;56280;49.662;8.408;2022-12-29T07:09:13;7.43;;;3.10;;
69172;SDS011;56280;49.662;8.408;2022-12-29T07:11:39;5.63;;;2.50;;
69172;SDS011;56280;49.662;8.408;2022-12-29T07:14:04;4.60;;;2.20;;
69172;SDS011;56280;49.662;8.408;2022-12-29T07:16:29;4.80;;;2.20;;
69172;SDS011;56280;49.662;8.408;2022-12-29T07:18:55;11.40;;;4.10;;
69172;SDS011;56280;49.662;8.408;2022-12-29T07:21:21;7.00;;;2.97;;
69172;SDS011;56280;49.662;8.408;2022-12-29T07:23:47;9.48;;;3.50;;
69172;SDS011;56280;49.662;8.408;2022-12-29T07:26:13;7.50;;;2.78;;
69172;SDS011;56280;49.662;8.408;2022-12-29T07:28:39;5.47;;;2.20;;
69172;SDS011;56280;49.662;8.408;2022-12-29T07:31:08;6.07;;;2.20;;
69172;SDS011;56280;49.662;8.408;2022-12-29T07:33:42;7.25;;;2.50;;
69172;SDS011;56280;49.662;8.408;2022-12-29T07:36:08;5.10;;;2.20;;
69172;SDS011;56280;49.662;8.408;2022-12-29T07:38:34;5.28;;;2.17;;
69172;SDS011;56280;49.662;8.408;2022-12-29T07:40:59;7.27;;;2.30;;
69172;SDS011;56280;49.662;8.408;2022-12-29T07:43:24;5.33;;;2.10;;
69172;SDS011;56280;49.662;8.408;2022-12-29T07:45:50;6.13;;;2.40;;
69172;SDS011;56280;49.662;8.408;2022-12-29T07:48:15;5.73;;;2.23;;
69172;SDS011;56280;49.662;8.408;2022-12-29T07:50:40;6.40;;;2.43;;
69172;SDS011;56280;49.662;8.408;2022-12-29T07:53:06;5.10;;;2.40;;
69172;SDS011;56280;49.662;8.408;2022-12-29T07:55:31;4.67;;;2.10;;
69172;SDS011;56280;49.662;8.408;2022-12-29T07:57:56;5.83;;;2.20;;
69172;SDS011;56280;49.662;8.408;2022-12-29T08:00:22;5.77;;;2.10;;
69172;SDS011;56280;49.662;8.408;2022-12-29T08:02:47;5.20;;;2.40;;
69172;SDS011;56280;49.662;8.408;2022-12-29T08:05:13;4.83;;;2.63;;
69172;SDS011;56280;49.662;8.408;2022-12-29T08:07:38;6.60;;;2.43;;
69172;SDS011;56280;49.662;8.408;2022-12-29T08:10:03;4.97;;;2.33;;
69172;SDS011;56280;49.662;8.408;2022-12-29T08:12:29;4.93;;;2.30;;
69172;SDS011;56280;49.662;8.408;2022-12-29T08:14:55;6.57;;;2.40;;
69172;SDS011;56280;49.662;8.408;2022-12-29T08:17:20;7.50;;;2.60;;
69172;SDS011;56280;49.662;8.408;2022-12-29T08:19:45;6.60;;;2.60;;
69172;SDS011;56280;49.662;8.408;2022-12-29T08:22:11;7.83;;;2.30;;
69172;SDS011;56280;49.662;8.408;2022-12-29T08:24:37;4.65;;;2.30;;
69172;SDS011;56280;49.662;8.408;2022-12-29T08:27:03;6.57;;;2.60;;
69172;SDS011;56280;49.662;8.408;2022-12-29T08:29:28;6.37;;;2.70;;
69172;SDS011;56280;49.662;8.408;2022-12-29T08:31:53;5.17;;;2.50;;
69172;SDS011;56280;49.662;8.408;2022-12-29T08:34:18;5.80;;;2.83;;
69172;SDS011;56280;49.662;8.408;2022-12-29T08:36:44;7.97;;;4.00;;
69172;SDS011;56280;49.662;8.408;2022-12-29T08:39:09;6.27;;;2.50;;
69172;SDS011;56280;49.662;8.408;2022-12-29T08:41:34;7.00;;;2.73;;
69172;SDS011;56280;49.662;8.408;2022-12-29T08:43:59;7.57;;;2.60;;
69172;SDS011;56280;49.662;8.408;2022-12-29T08:46:25;6.38;;;2.90;;
69172;SDS011;56280;49.662;8.408;2022-12-29T08:48:50;5.85;;;2.60;;
69172;SDS011;56280;49.662;8.408;2022-12-29T08:51:16;5.60;;;2.70;;
69172;SDS011;56280;49.662;8.408;2022-12-29T08:53:42;6.78;;;2.40;;
69172;SDS011;56280;49.662;8.408;2022-12-29T08:56:08;5.80;;;2.40;;
69172;SDS011;56280;49.662;8.408;2022-12-29T08:58:34;5.30;;;2.40;;
69172;SDS011;56280;49.662;8.408;2022-12-29T09:00:59;5.60;;;2.60;;
69172;SDS011;56280;49.662;8.408;2022-12-29T09:03:25;6.03;;;2.50;;
69172;SDS011;56280;49.662;8.408;2022-12-29T09:05:51;5.60;;;2.40;;
69172;SDS011;56280;49.662;8.408;2022-12-29T09:08:17;5.17;;;2.40;;
69172;SDS011;56280;49.662;8.408;2022-12-29T09:10:43;6.50;;;2.43;;
69172;SDS011;56280;49.662;8.408;2022-12-29T09:13:09;5.90;;;2.45;;
69172;SDS011;56280;49.662;8.408;2022-12-29T09:15:35;6.15;;;2.70;;
69172;SDS011;56280;49.662;8.408;2022-12-29T09:18:00;6.00;;;2.30;;
69172;SDS011;56280;49.662;8.408;2022-12-29T09:20:26;5.50;;;2.70;;
69172;SDS011;56280;49.662;8.408;2022-12-29T09:22:51;5.57;;;2.57;;
69172;SDS011;56280;49.662;8.408;2022-12-29T09:25:16;6.43;;;2.60;;
69172;SDS011;56280;49.662;8.408;2022-12-29T09:27:42;6.03;;;2.90;;
69172;SDS011;56280;49.662;8.408;2022-12-29T09:30:08;5.47;;;2.38;;
69172;SDS011;56280;49.662;8.408;2022-12-29T09:32:36;5.07;;;2.67;;
69172;SDS011;56280;49.662;8.408;2022-12-29T09:35:01;6.07;;;2.50;;
69172;SDS011;56280;49.662;8.408;2022-12-29T09:37:27;5.88;;;2.85;;
69172;SDS011;56280;49.662;8.408;2022-12-29T09:39:52;6.72;;;2.70;;
69172;SDS011;56280;49.662;8.408;2022-12-29T09:43:02;5.23;;;2.50;;
69172;SDS011;56280;49.662;8.408;2022-12-29T09:45:14;6.35;;;2.58;;
69172;SDS011;56280;49.662;8.408;2022-12-29T09:47:44;5.95;;;2.40;;
69172;SDS011;56280;49.662;8.408;2022-12-29T09:50:30;4.70;;;2.38;;
69172;SDS011;56280;49.662;8.408;2022-12-29T09:55:49;5.18;;;2.42;;
69172;SDS011;56280;49.662;8.408;2022-12-29T09:58:21;5.68;;;2.70;;
69172;SDS011;56280;49.662;8.408;2022-12-29T10:00:56;5.65;;;2.38;;
69172;SDS011;56280;49.662;8.408;2022-12-29T10:06:20;5.30;;;2.20;;
69172;SDS011;56280;49.662;8.408;2022-12-29T10:16:54;4.32;;;2.50;;
69172;SDS011;56280;49.662;8.408;2022-12-29T10:24:57;5.03;;;2.40;;
69172;SDS011;56280;49.662;8.408;2022-12-29T10:27:27;3.83;;;2.25;;
69172;SDS011;56280;49.662;8.408;2022-12-29T10:29:56;5.22;;;2.30;;
69172;SDS011;56280;49.662;8.408;2022-12-29T10:32:43;4.70;;;2.00;;
69172;SDS011;56280;49.662;8.408;2022-12-29T10:35:18;4.55;;;2.10;;
69172;SDS011;56280;49.662;8.408;2022-12-29T10:37:49;6.40;;;2.40;;
69172;SDS011;56280;49.662;8.408;2022-12-29T10:42:55;6.03;;;2.63;;
69172;SDS011;56280;49.662;8.408;2022-12-29T10:45:22;4.85;;;2.70;;
69172;SDS011;56280;49.662;8.408;2022-12-29T10:50:27;6.88;;;2.22;;
69172;SDS011;56280;49.662;8.408;2022-12-29T10:52:54;4.28;;;1.95;;
69172;SDS011;56280;49.662;8.408;2022-12-29T10:55:34;4.65;;;1.70;;
69172;SDS011;56280;49.662;8.408;2022-12-29T10:58:02;5.22;;;1.70;;
69172;SDS011;56280;49.662;8.408;2022-12-29T11:00:30;4.22;;;1.67;;
69172;SDS011;56280;49.662;8.408;2022-12-29T11:08:16;3.60;;;1.80;;
69172;SDS011;56280;49.662;8.408;2022-12-29T11:10:44;4.10;;;1.67;;
69172;SDS011;56280;49.662;8.408;2022-12-29T11:13:15;4.27;;;1.70;;
69172;SDS011;56280;49.662;8.408;2022-12-29T11:15:46;5.10;;;2.17;;
69172;SDS011;56280;49.662;8.408;2022-12-29T11:21:25;5.55;;;2.47;;
69172;SDS011;56280;49.662;8.408;2022-12-29T11:24:03;5.45;;;2.80;;
69172;SDS011;56280;49.662;8.408;2022-12-29T11:26:30;5.38;;;3.10;;
69172;SDS011;56280;49.662;8.408;2022-12-29T11:29:04;6.13;;;2.97;;
69172;SDS011;56280;49.662;8.408;2022-12-29T11:31:41;6.63;;;2.90;;
69172;SDS011;56280;49.662;8.408;2022-12-29T11:34:08;6.40;;;2.72;;
69172;SDS011;56280;49.662;8.408;2022-12-29T11:36:41;5.97;;;2.50;;
69172;SDS011;56280;49.662;8.408;2022-12-29T11:39:06;5.60;;;2.50;;
69172;SDS011;56280;49.662;8.408;2022-12-29T11:41:51;5.15;;;2.60;;
69172;SDS011;56280;49.662;8.408;2022-12-29T11:44:18;5.10;;;1.90;;
69172;SDS011;56280;49.662;8.408;2022-12-29T11:46:44;4.33;;;2.00;;
69172;SDS011;56280;49.662;8.408;2022-12-29T11:49:13;5.85;;;2.20;;
69172;SDS011;56280;49.662;8.408;2022-12-29T11:51:46;5.60;;;1.98;;
69172;SDS011;56280;49.662;8.408;2022-12-29T11:54:33;4.93;;;2.35;;
69172;SDS011;56280;49.662;8.408;2022-12-29T11:57:09;4.65;;;2.30;;
69172;SDS011;56280;49.662;8.408;2022-12-29T11:59:40;6.93;;;3.40;;
69172;SDS011;56280;49.662;8.408;2022-12-29T12:02:20;5.38;;;2.42;;
69172;SDS011;56280;49.662;8.408;2022-12-29T12:04:56;4.90;;;2.20;;
69172;SDS011;56280;49.662;8.408;2022-12-29T12:10:10;5.32;;;1.90;;
69172;SDS011;56280;49.662;8.408;2022-12-29T12:12:59;5.35;;;2.95;;
69172;SDS011;56280;49.662;8.408;2022-12-29T12:15:40;5.55;;;2.30;;
69172;SDS011;56280;49.662;8.408;2022-12-29T12:18:24;7.10;;;2.80;;
69172;SDS011;56280;49.662;8.408;2022-12-29T12:20:56;6.75;;;3.28;;
69172;SDS011;56280;49.662;8.408;2022-12-29T12:26:18;7.23;;;3.27;;
69172;SDS011;56280;49.662;8.408;2022-12-29T12:28:51;9.13;;;4.55;;
69172;SDS011;56280;49.662;8.408;2022-12-29T12:34:30;8.65;;;3.60;;
69172;SDS011;56280;49.662;8.408;2022-12-29T12:37:04;6.63;;;3.10;;
69172;SDS011;56280;49.662;8.408;2022-12-29T12:39:43;6.38;;;2.58;;
69172;SDS011;56280;49.662;8.408;2022-12-29T12:42:48;6.03;;;2.30;;
69172;SDS011;56280;49.662;8.408;2022-12-29T12:45:35;6.05;;;2.47;;
69172;SDS011;56280;49.662;8.408;2022-12-29T12:48:21;4.82;;;2.30;;
69172;SDS011;56280;49.662;8.408;2022-12-29T12:51:19;6.32;;;2.38;;
69172;SDS011;56280;49.662;8.408;2022-12-29T12:56:42;5.85;;;2.50;;
69172;SDS011;56280;49.662;8.408;2022-12-29T12:59:49;5.53;;;2.17;;
69172;SDS011;56280;49.662;8.408;2022-12-29T13:10:19;5.23;;;1.70;;
69172;SDS011;56280;49.662;8.408;2022-12-29T13:16:08;3.72;;;1.45;;
69172;SDS011;56280;49.662;8.408;2022-12-29T13:18:52;5.53;;;1.63;;
69172;SDS011;56280;49.662;8.408;2022-12-29T13:24:47;3.90;;;1.67;;
69172;SDS011;56280;49.662;8.408;2022-12-29T13:30:30;5.13;;;1.70;;
69172;SDS011;56280;49.662;8.408;2022-12-29T13:33:10;3.60;;;1.50;;
69172;SDS011;56280;49.662;8.408;2022-12-29T13:35:54;7.22;;;1.90;;
69172;SDS011;56280;49.662;8.408;2022-12-29T13:38:29;4.93;;;1.90;;
69172;SDS011;56280;49.662;8.408;2022-12-29T13:41:07;4.70;;;1.77;;
69172;SDS011;56280;49.662;8.408;2022-12-29T13:43:37;4.10;;;1.60;;
69172;SDS011;56280;49.662;8.408;2022-12-29T13:46:18;5.30;;;1.73;;
69172;SDS011;56280;49.662;8.408;2022-12-29T13:48:55;5.65;;;1.67;;
69172;SDS011;56280;49.662;8.408;2022-12-29T13:51:25;4.90;;;1.37;;
69172;SDS011;56280;49.662;8.408;2022-12-29T13:53:55;5.20;;;1.90;;
69172;SDS011;56280;49.662;8.408;2022-12-29T13:56:54;6.70;;;2.42;;
69172;SDS011;56280;49.662;8.408;2022-12-29T14:02:10;4.72;;;1.58;;
69172;SDS011;56280;49.662;8.408;2022-12-29T14:05:02;4.23;;;1.50;;
69172;SDS011;56280;49.662;8.408;2022-12-29T14:07:49;3.95;;;1.70;;
69172;SDS011;56280;49.662;8.408;2022-12-29T14:10:26;5.60;;;1.85;;
69172;SDS011;56280;49.662;8.408;2022-12-29T14:13:11;5.03;;;1.60;;
69172;SDS011;56280;49.662;8.408;2022-12-29T14:15:43;4.70;;;1.40;;
69172;SDS011;56280;49.662;8.408;2022-12-29T14:18:18;4.75;;;1.52;;
69172;SDS011;56280;49.662;8.408;2022-12-29T14:20:50;4.53;;;1.75;;
69172;SDS011;56280;49.662;8.408;2022-12-29T14:31:03;5.40;;;1.45;;
69172;SDS011;56280;49.662;8.408;2022-12-29T14:36:37;4.03;;;1.20;;
69172;SDS011;56280;49.662;8.408;2022-12-29T14:44:31;5.47;;;1.40;;
69172;SDS011;56280;49.662;8.408;2022-12-29T14:46:59;5.22;;;1.40;;
69172;SDS011;56280;49.662;8.408;2022-12-29T14:49:31;5.60;;;1.40;;
69172;SDS011;56280;49.662;8.408;2022-12-29T14:52:05;4.50;;;1.33;;
69172;SDS011;56280;49.662;8.408;2022-12-29T14:57:03;4.27;;;1.23;;
69172;SDS011;56280;49.662;8.408;2022-12-29T14:59:31;4.60;;;1.30;;
69172;SDS011;56280;49.662;8.408;2022-12-29T15:01:58;4.43;;;1.30;;
69172;SDS011;56280;49.662;8.408;2022-12-29T15:04:31;5.50;;;1.30;;
69172;SDS011;56280;49.662;8.408;2022-12-29T15:06:58;4.00;;;1.40;;
69172;SDS011;56280;49.662;8.408;2022-12-29T15:09:35;57.05;;;8.75;;
69172;SDS011;56280;49.662;8.408;2022-12-29T15:14:51;4.70;;;1.50;;
69172;SDS011;56280;49.662;8.408;2022-12-29T15:17:23;5.43;;;2.25;;
69172;SDS011;56280;49.662;8.408;2022-12-29T15:19:54;6.28;;;1.73;;
69172;SDS011;56280;49.662;8.408;2022-12-29T15:22:21;5.38;;;1.77;;
69172;SDS011;56280;49.662;8.408;2022-12-29T15:24:49;6.23;;;1.50;;
69172;SDS011;56280;49.662;8.408;2022-12-29T15:27:19;4.83;;;1.30;;
69172;SDS011;56280;49.662;8.408;2022-12-29T15:29:46;5.22;;;1.60;;
69172;SDS011;56280;49.662;8.408;2022-12-29T15:34:41;4.70;;;1.40;;
69172;SDS011;56280;49.662;8.408;2022-12-29T15:37:07;4.77;;;1.67;;
69172;SDS011;56280;49.662;8.408;2022-12-29T15:39:33;4.80;;;1.70;;
69172;SDS011;56280;49.662;8.408;2022-12-29T15:42:09;7.95;;;2.88;;
69172;SDS011;56280;49.662;8.408;2022-12-29T15:44:44;9.40;;;3.42;;
69172;SDS011;56280;49.662;8.408;2022-12-29T15:47:29;8.55;;;2.80;;
69172;SDS011;56280;49.662;8.408;2022-12-29T15:50:40;22.10;;;7.07;;
69172;SDS011;56280;49.662;8.408;2022-12-29T15:52:47;27.10;;;7.80;;
69172;SDS011;56280;49.662;8.408;2022-12-29T15:55:20;15.88;;;4.75;;
69172;SDS011;56280;49.662;8.408;2022-12-29T15:57:51;5.97;;;2.50;;
69172;SDS011;56280;49.662;8.408;2022-12-29T16:00:28;9.87;;;4.33;;
69172;SDS011;56280;49.662;8.408;2022-12-29T16:03:03;7.97;;;3.25;;
69172;SDS011;56280;49.662;8.408;2022-12-29T16:05:33;6.60;;;3.22;;
69172;SDS011;56280;49.662;8.408;2022-12-29T16:08:00;8.70;;;3.33;;
69172;SDS011;56280;49.662;8.408;2022-12-29T16:12:52;5.47;;;2.33;;
69172;SDS011;56280;49.662;8.408;2022-12-29T16:15:17;5.83;;;2.07;;
69172;SDS011;56280;49.662;8.408;2022-12-29T16:17:47;6.95;;;2.50;;
69172;SDS011;56280;49.662;8.408;2022-12-29T16:22:45;8.65;;;2.33;;
69172;SDS011;56280;49.662;8.408;2022-12-29T16:27:47;8.10;;;3.05;;
69172;SDS011;56280;49.662;8.408;2022-12-29T16:30:19;7.65;;;2.72;;
69172;SDS011;56280;49.662;8.408;2022-12-29T16:32:47;7.30;;;2.10;;
69172;SDS011;56280;49.662;8.408;2022-12-29T16:35:18;7.47;;;2.20;;
69172;SDS011;56280;49.662;8.408;2022-12-29T16:37:43;6.93;;;2.20;;
69172;SDS011;56280;49.662;8.408;2022-12-29T16:42:48;7.57;;;1.90;;
69172;SDS011;56280;49.662;8.408;2022-12-29T16:47:43;7.15;;;2.10;;
69172;SDS011;56280;49.662;8.408;2022-12-29T16:50:12;8.20;;;2.27;;
69172;SDS011;56280;49.662;8.408;2022-12-29T16:52:46;6.53;;;2.08;;
69172;SDS011;56280;49.662;8.408;2022-12-29T16:55:17;8.82;;;2.10;;
69172;SDS011;56280;49.662;8.408;2022-12-29T16:57:44;6.20;;;2.20;;
69172;SDS011;56280;49.662;8.408;2022-12-29T17:00:31;7.40;;;2.30;;
69172;SDS011;56280;49.662;8.408;2022-12-29T17:03:00;10.47;;;3.70;;
69172;SDS011;56280;49.662;8.408;2022-12-29T17:05:26;10.13;;;2.80;;
69172;SDS011;56280;49.662;8.408;2022-12-29T17:07:52;12.57;;;4.83;;
69172;SDS011;56280;49.662;8.408;2022-12-29T17:10:18;12.07;;;4.47;;
69172;SDS011;56280;49.662;8.408;2022-12-29T17:12:44;8.20;;;3.80;;